Time;durP1;ratioP1;P1;durP2;ratioP2;P2;SDS_P1;SDS_P2;PMS_P1;PMS_P2;Temp;Humidity;BMP_temperature;BMP_pressure;BME280_temperature;BME280_humidity;BME280_pressure;Samples;Min_cycle;Max_cycle;Signal;HPM_P1;HPM_P2
2023/09/17 00:00:57;;;;;;;;;;;25.80;75.50;;;;;;5109591;27;44753;-77
2023/09/17 00:03:22;;;;;;;;;;;25.80;75.40;;;;;;5126981;27;42892;-77
2023/09/17 00:05:48;;;;;;;;;;;26.00;75.80;;;;;;5127522;27;43517;-77
2023/09/17 00:08:13;;;;;;;;;;;25.70;76.10;;;;;;5127656;27;42863;-79
2023/09/17 00:10:43;;;;;;;;;;;25.80;76.20;;;;;;5127587;27;43424;-79
2023/09/17 00:13:08;;;;;;;;;;;26.00;76.00;;;;;;5126222;27;42983;-77
2023/09/17 00:15:34;;;;;;;;;;;25.70;75.70;;;;;;5128105;27;42919;-78
2023/09/17 00:17:59;;;;;;;;;;;25.70;75.70;;;;;;5127033;27;42855;-84
2023/09/17 00:20:25;;;;;;;;;;;25.70;75.50;;;;;;5126536;27;43700;-86
2023/09/17 00:22:50;;;;;;;;;;;25.80;75.60;;;;;;5126432;27;43190;-85
2023/09/17 00:25:16;;;;;;;;;;;25.80;75.50;;;;;;5127088;27;43030;-85
2023/09/17 00:27:41;;;;;;;;;;;25.80;75.00;;;;;;5127615;27;42865;-85
2023/09/17 00:30:09;;;;;;;;;;;25.90;75.50;;;;;;5126928;27;42903;-83
2023/09/17 00:32:34;;;;;;;;;;;25.80;75.00;;;;;;5126848;27;43056;-86
2023/09/17 00:35:00;;;;;;;;;;;25.90;75.00;;;;;;5108600;27;45119;-86
2023/09/17 00:37:25;;;;;;;;;;;25.80;75.40;;;;;;5127474;27;42780;-86
2023/09/17 00:39:51;;;;;;;;;;;25.80;74.80;;;;;;5127675;27;43394;-86
2023/09/17 00:42:16;;;;;;;;;;;25.80;75.40;;;;;;5126934;27;42948;-86
2023/09/17 00:44:42;;;;;;;;;;;25.70;74.60;;;;;;5127179;27;44281;-86
2023/09/17 00:47:08;;;;;;;;;;;25.90;74.80;;;;;;5126666;27;42996;-86
2023/09/17 00:49:34;;;;;;;;;;;25.80;75.30;;;;;;5126811;27;42977;-86
2023/09/17 00:52:01;;;;;;;;;;;25.80;74.80;;;;;;5126131;27;42955;-85
2023/09/17 00:54:28;;;;;;;;;;;25.70;75.10;;;;;;5127270;27;43214;-86
2023/09/17 00:56:54;;;;;;;;;;;25.80;75.50;;;;;;5126607;27;42980;-86
2023/09/17 00:59:19;;;;;;;;;;;25.70;75.60;;;;;;5126098;27;43758;-81
2023/09/17 01:01:45;;;;;;;;;;;25.70;75.70;;;;;;5109821;27;43087;-86
2023/09/17 01:04:12;;;;;;;;;;;25.70;75.70;;;;;;5106283;27;43286;-85
2023/09/17 01:06:38;;;;;;;;;;;25.60;75.10;;;;;;5088174;27;42973;-79
2023/09/17 01:09:05;;;;;;;;;;;27.80;76.80;;;;;;5105883;27;43067;-81
2023/09/17 01:11:30;;;;;;;;;;;25.60;75.70;;;;;;5106155;27;42941;-77
2023/09/17 01:14:08;;;;;;;;;;;25.70;75.50;;;;;;5105981;27;43763;-80
2023/09/17 01:16:34;;;;;;;;;;;25.80;72.60;;;;;;5105613;27;42905;-79
2023/09/17 01:19:00;;;;;;;;;;;25.60;75.40;;;;;;5105634;27;43842;-79
2023/09/17 01:21:38;;;;;;;;;;;25.70;75.40;;;;;;5087158;27;43089;-80
2023/09/17 01:24:13;;;;;;;;;;;25.60;72.90;;;;;;5105968;27;44034;-82
2023/09/17 01:26:39;;;;;;;;;;;25.80;72.90;;;;;;5106421;27;42938;-78
2023/09/17 01:29:05;;;;;;;;;;;25.50;75.10;;;;;;5105571;27;43464;-78
2023/09/17 01:31:30;;;;;;;;;;;25.60;75.10;;;;;;5105787;27;43023;-78
2023/09/17 01:33:56;;;;;;;;;;;25.40;74.80;;;;;;5105132;27;42955;-81
2023/09/17 01:36:26;;;;;;;;;;;25.70;75.30;;;;;;5105891;27;42949;-79
2023/09/17 01:38:54;;;;;;;;;;;25.70;74.40;;;;;;5105621;27;42913;-80
2023/09/17 01:41:21;;;;;;;;;;;25.80;75.00;;;;;;5104970;27;43305;-81
2023/09/17 01:43:47;;;;;;;;;;;25.80;74.90;;;;;;5105314;27;43064;-77
2023/09/17 01:46:16;;;;;;;;;;;25.90;74.50;;;;;;5104517;27;42948;-79
2023/09/17 01:48:42;;;;;;;;;;;25.70;74.40;;;;;;5105424;27;42759;-83
2023/09/17 01:51:09;;;;;;;;;;;25.80;74.10;;;;;;5105647;27;42864;-78
2023/09/17 01:53:36;;;;;;;;;;;25.60;74.80;;;;;;5103092;27;63340;-79
2023/09/17 01:56:04;;;;;;;;;;;25.60;74.80;;;;;;5105794;27;43059;-79
2023/09/17 01:58:30;;;;;;;;;;;25.70;74.80;;;;;;5105585;27;44585;-79
2023/09/17 02:00:56;;;;;;;;;;;25.60;74.70;;;;;;5104681;27;42851;-77
2023/09/17 02:03:22;;;;;;;;;;;25.90;74.50;;;;;;5105054;27;42973;-78
2023/09/17 02:05:48;;;;;;;;;;;25.60;74.10;;;;;;5105582;27;42826;-78
2023/09/17 02:08:14;;;;;;;;;;;25.70;74.30;;;;;;5104357;27;43127;-78
2023/09/17 02:10:40;;;;;;;;;;;25.60;74.80;;;;;;5105034;27;43055;-81
2023/09/17 02:13:06;;;;;;;;;;;25.60;74.70;;;;;;5105227;27;43281;-79
2023/09/17 02:15:32;;;;;;;;;;;25.70;74.80;;;;;;5104695;27;42983;-80
2023/09/17 02:17:58;;;;;;;;;;;25.60;74.60;;;;;;5103055;27;43089;-79
2023/09/17 02:20:23;;;;;;;;;;;25.40;74.90;;;;;;5105436;27;42917;-76
2023/09/17 02:22:50;;;;;;;;;;;25.50;75.10;;;;;;5104592;27;42931;-80
2023/09/17 02:25:16;;;;;;;;;;;25.50;75.30;;;;;;5104655;27;42917;-80
2023/09/17 02:27:42;;;;;;;;;;;25.60;74.90;;;;;;5104711;27;43007;-82
2023/09/17 02:30:08;;;;;;;;;;;25.40;74.90;;;;;;5103410;27;43136;-80
2023/09/17 02:32:34;;;;;;;;;;;25.30;75.20;;;;;;5104376;27;43439;-77
2023/09/17 02:35:00;;;;;;;;;;;25.60;75.60;;;;;;5105805;27;43043;-78
2023/09/17 02:37:25;;;;;;;;;;;25.50;74.90;;;;;;5107242;27;43515;-78
2023/09/17 02:39:51;;;;;;;;;;;25.50;75.10;;;;;;5108423;27;43004;-80
2023/09/17 02:42:16;;;;;;;;;;;25.50;75.60;;;;;;5108276;27;42921;-82
2023/09/17 02:44:42;;;;;;;;;;;25.40;75.60;;;;;;5107877;27;42984;-77
2023/09/17 02:47:08;;;;;;;;;;;25.30;75.60;;;;;;5107354;27;43431;-81
2023/09/17 02:49:33;;;;;;;;;;;25.60;76.00;;;;;;5108471;27;43155;-79
2023/09/17 02:51:59;;;;;;;;;;;26.40;76.50;;;;;;5108452;27;42834;-81
2023/09/17 02:54:24;;;;;;;;;;;25.50;75.60;;;;;;5108284;27;42888;-79
2023/09/17 02:56:50;;;;;;;;;;;25.40;75.40;;;;;;5108591;27;42926;-83
2023/09/17 02:59:15;;;;;;;;;;;25.40;75.20;;;;;;5108461;27;43036;-78
2023/09/17 03:01:41;;;;;;;;;;;25.30;75.70;;;;;;5107343;27;43420;-78
2023/09/17 03:04:07;;;;;;;;;;;25.30;75.70;;;;;;5106941;27;43118;-80
2023/09/17 03:06:33;;;;;;;;;;;25.50;75.90;;;;;;5108041;27;43453;-82
2023/09/17 03:08:59;;;;;;;;;;;25.40;75.30;;;;;;5105640;27;42961;-80
2023/09/17 03:11:26;;;;;;;;;;;25.30;75.80;;;;;;5105939;27;45625;-82
2023/09/17 03:13:52;;;;;;;;;;;25.20;75.60;;;;;;5106947;27;43561;-80
2023/09/17 03:16:18;;;;;;;;;;;25.40;75.70;;;;;;5107597;27;43679;-80
2023/09/17 03:18:44;;;;;;;;;;;25.20;75.70;;;;;;5107780;27;42878;-77
2023/09/17 03:21:10;;;;;;;;;;;25.20;75.30;;;;;;5108268;27;43046;-80
2023/09/17 03:23:36;;;;;;;;;;;25.30;75.90;;;;;;5107776;27;42882;-80
2023/09/17 03:26:03;;;;;;;;;;;25.30;75.90;;;;;;5108366;27;43138;-78
2023/09/17 03:28:29;;;;;;;;;;;25.20;75.70;;;;;;5107690;27;42834;-80
2023/09/17 03:30:55;;;;;;;;;;;25.20;75.90;;;;;;5106152;27;43828;-77
2023/09/17 03:33:21;;;;;;;;;;;25.20;75.80;;;;;;5107017;27;42961;-77
2023/09/17 03:35:47;;;;;;;;;;;25.20;75.90;;;;;;5106900;27;43439;-85
2023/09/17 03:38:12;;;;;;;;;;;25.30;75.90;;;;;;5107786;27;42830;-83
2023/09/17 03:40:39;;;;;;;;;;;25.30;75.90;;;;;;5107216;27;43545;-83
2023/09/17 03:43:05;;;;;;;;;;;25.30;76.10;;;;;;5107779;27;42863;-81
2023/09/17 03:45:31;;;;;;;;;;;25.40;76.30;;;;;;5106486;27;42924;-83
2023/09/17 03:47:57;;;;;;;;;;;25.30;76.10;;;;;;5105860;27;42976;-80
2023/09/17 03:50:23;;;;;;;;;;;25.20;76.00;;;;;;5107499;27;43853;-83
2023/09/17 03:52:53;;;;;;;;;;;25.20;76.00;;;;;;5107722;27;42993;-78
2023/09/17 03:55:19;;;;;;;;;;;25.20;76.20;;;;;;5107561;27;43016;-79
2023/09/17 03:57:45;;;;;;;;;;;25.20;75.90;;;;;;5105986;27;43333;-84
2023/09/17 04:00:11;;;;;;;;;;;25.40;75.40;;;;;;5106944;27;43365;-84
2023/09/17 04:02:37;;;;;;;;;;;25.20;74.90;;;;;;5107066;27;42980;-78
2023/09/17 04:05:09;;;;;;;;;;;25.20;75.30;;;;;;5106487;27;43318;-83
2023/09/17 04:07:34;;;;;;;;;;;25.40;75.00;;;;;;5105292;27;43092;-84
2023/09/17 04:10:00;;;;;;;;;;;24.50;74.20;;;;;;5103348;27;42919;-79
2023/09/17 04:12:26;;;;;;;;;;;25.30;74.40;;;;;;5107314;27;42985;-77
2023/09/17 04:14:52;;;;;;;;;;;25.20;74.80;;;;;;5104453;27;43054;-77
2023/09/17 04:17:19;;;;;;;;;;;25.40;75.20;;;;;;5106262;27;42814;-84
2023/09/17 04:19:45;;;;;;;;;;;25.10;74.50;;;;;;5107092;27;43039;-85
2023/09/17 04:22:10;;;;;;;;;;;25.20;74.80;;;;;;5107006;27;43076;-86
2023/09/17 04:24:38;;;;;;;;;;;25.20;75.30;;;;;;5106191;27;44007;-84
2023/09/17 04:27:04;;;;;;;;;;;25.20;74.70;;;;;;5106958;27;43105;-85
2023/09/17 04:29:29;;;;;;;;;;;25.20;75.10;;;;;;5106557;27;43001;-85
2023/09/17 04:31:55;;;;;;;;;;;25.20;74.90;;;;;;5107199;27;43004;-86
2023/09/17 04:34:20;;;;;;;;;;;25.10;75.30;;;;;;5106636;27;43267;-85
2023/09/17 04:36:46;;;;;;;;;;;25.10;75.20;;;;;;5107102;27;42902;-85
2023/09/17 04:39:14;;;;;;;;;;;25.10;75.30;;;;;;5103866;27;43966;-85
2023/09/17 04:41:40;;;;;;;;;;;25.10;75.30;;;;;;5105666;27;42984;-85
2023/09/17 04:44:10;;;;;;;;;;;25.10;75.50;;;;;;5106084;27;42921;-85
2023/09/17 04:46:43;;;;;;;;;;;25.00;73.80;;;;;;5106177;27;42985;-84
2023/09/17 04:49:11;;;;;;;;;;;25.10;73.10;;;;;;5106142;27;42839;-83
2023/09/17 04:51:36;;;;;;;;;;;25.40;73.30;;;;;;5102333;27;43021;-85
2023/09/17 04:54:02;;;;;;;;;;;25.10;75.40;;;;;;5105743;27;42862;-83
2023/09/17 04:56:28;;;;;;;;;;;25.10;75.50;;;;;;5106255;27;43092;-85
2023/09/17 04:58:54;;;;;;;;;;;24.90;75.50;;;;;;5104512;27;43350;-83
2023/09/17 05:01:19;;;;;;;;;;;25.00;75.80;;;;;;5106199;27;43076;-86
2023/09/17 05:03:46;;;;;;;;;;;25.10;75.90;;;;;;5105241;27;43580;-81
2023/09/17 05:06:12;;;;;;;;;;;24.90;75.50;;;;;;5105808;27;43000;-85
2023/09/17 05:08:38;;;;;;;;;;;25.00;75.80;;;;;;5106200;27;43981;-85
2023/09/17 05:11:03;;;;;;;;;;;25.00;75.20;;;;;;5106815;27;42996;-85
2023/09/17 05:13:28;;;;;;;;;;;25.00;76.00;;;;;;5105883;27;42843;-85
2023/09/17 05:15:55;;;;;;;;;;;25.10;75.30;;;;;;5104467;27;43025;-85
2023/09/17 05:18:20;;;;;;;;;;;25.00;75.60;;;;;;5105774;27;42893;-83
2023/09/17 05:20:48;;;;;;;;;;;25.00;75.80;;;;;;5103582;27;42981;-84
2023/09/17 05:23:13;;;;;;;;;;;25.00;75.70;;;;;;5106169;27;42995;-85
2023/09/17 05:25:39;;;;;;;;;;;25.10;75.90;;;;;;5105791;27;43032;-85
2023/09/17 05:28:06;;;;;;;;;;;24.90;76.50;;;;;;5105976;27;43352;-86
2023/09/17 05:30:33;;;;;;;;;;;25.00;75.70;;;;;;5105305;27;42975;-86
2023/09/17 05:32:58;;;;;;;;;;;24.90;75.90;;;;;;5105512;27;43485;-86
2023/09/17 05:35:24;;;;;;;;;;;24.80;75.90;;;;;;5105376;27;43018;-85
2023/09/17 05:37:49;;;;;;;;;;;25.00;76.20;;;;;;5100292;27;43509;-76
2023/09/17 05:40:15;;;;;;;;;;;25.00;76.10;;;;;;5097830;27;43298;-79
2023/09/17 05:42:40;;;;;;;;;;;25.00;75.70;;;;;;5100276;27;42940;-78
2023/09/17 05:45:06;;;;;;;;;;;24.90;76.20;;;;;;5104272;27;42827;-79
2023/09/17 05:47:32;;;;;;;;;;;24.90;75.60;;;;;;5102319;27;43701;-78
2023/09/17 05:49:59;;;;;;;;;;;25.00;75.60;;;;;;5104342;27;42936;-82
2023/09/17 05:52:24;;;;;;;;;;;25.10;75.60;;;;;;5104244;27;43009;-82
2023/09/17 05:54:50;;;;;;;;;;;25.20;75.90;;;;;;5105091;27;43085;-81
2023/09/17 05:57:16;;;;;;;;;;;25.10;75.80;;;;;;5101222;27;43821;-81
2023/09/17 05:59:41;;;;;;;;;;;25.00;75.60;;;;;;5101581;27;42942;-77
2023/09/17 06:02:08;;;;;;;;;;;25.10;75.30;;;;;;5104540;27;43671;-78
2023/09/17 06:04:34;;;;;;;;;;;25.10;75.40;;;;;;5104419;27;42990;-80
2023/09/17 06:06:59;;;;;;;;;;;25.10;74.70;;;;;;5099709;27;43531;-76
2023/09/17 06:09:25;;;;;;;;;;;25.20;75.00;;;;;;5101574;27;42957;-79
2023/09/17 06:11:51;;;;;;;;;;;25.30;74.90;;;;;;5104139;27;42832;-76
2023/09/17 06:14:16;;;;;;;;;;;25.20;74.20;;;;;;5104740;27;43045;-81
2023/09/17 06:16:42;;;;;;;;;;;25.20;74.00;;;;;;5102736;27;44055;-79
2023/09/17 06:19:07;;;;;;;;;;;25.00;74.70;;;;;;5105034;27;42850;-79
2023/09/17 06:21:33;;;;;;;;;;;25.10;74.20;;;;;;5104681;27;42982;-84
2023/09/17 06:23:58;;;;;;;;;;;25.10;74.00;;;;;;5104881;27;42977;-78
2023/09/17 06:26:24;;;;;;;;;;;24.80;74.50;;;;;;5104647;27;43357;-79
2023/09/17 06:28:49;;;;;;;;;;;25.10;74.70;;;;;;5103499;27;43019;-84
2023/09/17 06:31:15;;;;;;;;;;;25.00;74.60;;;;;;5098944;27;43616;-80
2023/09/17 06:33:41;;;;;;;;;;;25.10;74.10;;;;;;5101322;27;42861;-84
2023/09/17 06:36:06;;;;;;;;;;;25.20;74.50;;;;;;5103910;27;43849;-85
2023/09/17 06:38:32;;;;;;;;;;;25.20;74.10;;;;;;5103784;27;43193;-83
2023/09/17 06:40:58;;;;;;;;;;;25.20;74.20;;;;;;5101212;27;43032;-82
2023/09/17 06:43:23;;;;;;;;;;;25.30;74.10;;;;;;5099563;27;43337;-83
2023/09/17 06:45:49;;;;;;;;;;;25.10;74.00;;;;;;5083776;28;43367;-82
2023/09/17 06:48:14;;;;;;;;;;;25.20;74.00;;;;;;5090063;27;42932;-82
2023/09/17 06:50:40;;;;;;;;;;;25.20;74.00;;;;;;5088822;27;42983;-82
2023/09/17 06:53:05;;;;;;;;;;;25.20;73.80;;;;;;5086421;27;43021;-82
2023/09/17 06:55:31;;;;;;;;;;;25.20;73.50;;;;;;5083848;28;43523;-83
2023/09/17 06:57:56;;;;;;;;;;;25.10;74.00;;;;;;5083831;28;43148;-83
2023/09/17 07:00:22;;;;;;;;;;;25.00;74.10;;;;;;5080962;28;42954;-83
2023/09/17 07:02:47;;;;;;;;;;;25.20;74.10;;;;;;5073785;28;43453;-84
2023/09/17 07:05:13;;;;;;;;;;;25.30;74.30;;;;;;5073025;28;42961;-85
2023/09/17 07:07:39;;;;;;;;;;;25.00;74.00;;;;;;5071371;28;43010;-82
2023/09/17 07:10:05;;;;;;;;;;;25.10;74.50;;;;;;5072785;28;43430;-84
2023/09/17 07:12:35;;;;;;;;;;;25.10;73.40;;;;;;5097861;27;42928;-85
2023/09/17 07:15:01;;;;;;;;;;;25.40;74.40;;;;;;5093129;27;42752;-85
2023/09/17 07:17:27;;;;;;;;;;;25.00;74.30;;;;;;5061995;28;43014;-79
2023/09/17 07:19:52;;;;;;;;;;;25.00;74.30;;;;;;5068716;28;43365;-82
2023/09/17 07:22:18;;;;;;;;;;;25.00;73.60;;;;;;5085173;27;42989;-81
2023/09/17 07:24:43;;;;;;;;;;;25.00;74.30;;;;;;5086180;27;43559;-81
2023/09/17 07:27:09;;;;;;;;;;;25.10;74.10;;;;;;5087887;27;42946;-81
2023/09/17 07:29:34;;;;;;;;;;;25.00;74.30;;;;;;5086186;28;43083;-81
2023/09/17 07:32:00;;;;;;;;;;;25.10;74.10;;;;;;5067389;28;43590;-81
2023/09/17 07:34:26;;;;;;;;;;;25.10;74.80;;;;;;5079907;27;44165;-80
2023/09/17 07:36:53;;;;;;;;;;;25.00;74.90;;;;;;5080912;28;43117;-81
2023/09/17 07:39:18;;;;;;;;;;;24.80;74.80;;;;;;5086825;28;42815;-81
2023/09/17 07:41:44;;;;;;;;;;;25.10;75.00;;;;;;5087276;27;42912;-81
2023/09/17 07:44:09;;;;;;;;;;;25.20;73.90;;;;;;5086677;28;43920;-82
2023/09/17 07:46:35;;;;;;;;;;;24.90;74.30;;;;;;5087251;27;42934;-81
2023/09/17 07:49:00;;;;;;;;;;;25.20;74.60;;;;;;5091024;27;42965;-80
2023/09/17 07:51:26;;;;;;;;;;;25.10;74.40;;;;;;5108265;27;42950;-80
2023/09/17 07:53:51;;;;;;;;;;;25.10;74.50;;;;;;5108502;27;42900;-80
2023/09/17 07:56:17;;;;;;;;;;;25.00;74.20;;;;;;5117536;27;43060;-80
2023/09/17 07:58:42;;;;;;;;;;;25.10;74.30;;;;;;5109743;27;43385;-80
2023/09/17 08:01:08;;;;;;;;;;;25.10;74.30;;;;;;5128825;27;42967;-81
2023/09/17 08:03:34;;;;;;;;;;;25.10;74.60;;;;;;5127206;27;43096;-80
2023/09/17 08:06:00;;;;;;;;;;;25.10;74.40;;;;;;5107496;27;43052;-81
2023/09/17 08:08:26;;;;;;;;;;;24.80;74.10;;;;;;5107525;27;43072;-81
2023/09/17 08:10:52;;;;;;;;;;;25.10;74.40;;;;;;5124000;27;43020;-80
2023/09/17 08:13:17;;;;;;;;;;;25.20;75.00;;;;;;5111457;27;43523;-80
2023/09/17 08:15:43;;;;;;;;;;;25.30;75.70;;;;;;5106526;27;42980;-79
2023/09/17 08:18:09;;;;;;;;;;;25.10;76.60;;;;;;5106617;27;43184;-80
2023/09/17 08:20:34;;;;;;;;;;;25.20;75.60;;;;;;5107328;27;43035;-80
2023/09/17 08:23:00;;;;;;;;;;;25.20;76.00;;;;;;5106833;27;43774;-81
2023/09/17 08:25:26;;;;;;;;;;;25.00;76.80;;;;;;5106920;27;42987;-82
2023/09/17 08:27:52;;;;;;;;;;;25.20;77.00;;;;;;5105148;27;44406;-80
2023/09/17 08:30:19;;;;;;;;;;;25.00;77.30;;;;;;5107101;27;42990;-81
2023/09/17 08:32:45;;;;;;;;;;;25.20;77.30;;;;;;5105708;27;43532;-80
2023/09/17 08:35:14;;;;;;;;;;;25.00;76.20;;;;;;5107302;27;43014;-81
2023/09/17 08:37:40;;;;;;;;;;;25.20;77.00;;;;;;5107417;27;42977;-81
2023/09/17 08:40:10;;;;;;;;;;;25.30;76.80;;;;;;5096133;27;42979;-80
2023/09/17 08:42:37;;;;;;;;;;;25.20;75.40;;;;;;5106653;27;43071;-82
2023/09/17 08:45:03;;;;;;;;;;;25.20;75.60;;;;;;5106264;27;42980;-81
2023/09/17 08:47:29;;;;;;;;;;;25.40;75.80;;;;;;5105135;27;42863;-81
2023/09/17 08:49:54;;;;;;;;;;;25.30;75.70;;;;;;5106038;27;43006;-81
2023/09/17 08:52:20;;;;;;;;;;;25.30;76.10;;;;;;5104938;27;43793;-81
2023/09/17 08:54:48;;;;;;;;;;;25.60;76.40;;;;;;5105816;27;42921;-80
2023/09/17 08:57:14;;;;;;;;;;;25.20;76.30;;;;;;5095499;27;43286;-79
2023/09/17 08:59:45;;;;;;;;;;;25.30;76.50;;;;;;5084960;28;42932;-81
2023/09/17 09:02:15;;;;;;;;;;;25.30;74.10;;;;;;5085819;28;42971;-81
2023/09/17 09:04:41;;;;;;;;;;;25.50;76.60;;;;;;5086334;28;42928;-81
2023/09/17 09:07:06;;;;;;;;;;;25.40;76.10;;;;;;5086879;27;43551;-82
2023/09/17 09:09:34;;;;;;;;;;;25.20;76.70;;;;;;5084986;28;43224;-82
2023/09/17 09:11:59;;;;;;;;;;;25.50;76.00;;;;;;5069273;27;45085;-81
2023/09/17 09:14:25;;;;;;;;;;;25.40;76.60;;;;;;5086476;27;42847;-81
2023/09/17 09:16:50;;;;;;;;;;;25.40;76.50;;;;;;5105744;27;43039;-81
2023/09/17 09:19:16;;;;;;;;;;;25.50;76.60;;;;;;5105417;27;42978;-81
2023/09/17 09:21:42;;;;;;;;;;;25.40;76.50;;;;;;5105738;27;43590;-81
2023/09/17 09:24:07;;;;;;;;;;;25.50;76.00;;;;;;5086712;27;42882;-82
2023/09/17 09:26:37;;;;;;;;;;;25.30;76.20;;;;;;5091102;27;43027;-82
2023/09/17 09:29:04;;;;;;;;;;;25.40;74.40;;;;;;5106287;27;42927;-81
2023/09/17 09:31:32;;;;;;;;;;;25.30;76.80;;;;;;5090706;27;42913;-81
2023/09/17 09:33:59;;;;;;;;;;;25.40;76.60;;;;;;5106114;27;42932;-81
2023/09/17 09:36:28;;;;;;;;;;;25.30;77.10;;;;;;5074114;28;43576;-81
2023/09/17 09:38:55;;;;;;;;;;;25.20;76.90;;;;;;5085299;28;42859;-81
2023/09/17 09:41:21;;;;;;;;;;;25.40;77.00;;;;;;5085285;27;43010;-81
2023/09/17 09:43:47;;;;;;;;;;;25.40;76.10;;;;;;5085436;27;43061;-81
2023/09/17 09:46:14;;;;;;;;;;;25.30;76.60;;;;;;5085548;27;43639;-81
2023/09/17 09:48:40;;;;;;;;;;;25.40;76.60;;;;;;5085312;27;42879;-82
2023/09/17 09:51:06;;;;;;;;;;;25.40;76.50;;;;;;5105181;27;42921;-81
2023/09/17 09:53:32;;;;;;;;;;;25.40;76.10;;;;;;5102681;27;43079;-81
2023/09/17 09:55:57;;;;;;;;;;;25.40;76.70;;;;;;5104557;27;43706;-76
2023/09/17 09:58:23;;;;;;;;;;;25.40;77.30;;;;;;5106041;27;42953;-77
2023/09/17 10:00:49;;;;;;;;;;;25.50;76.70;;;;;;5104742;27;43324;-78
2023/09/17 10:03:17;;;;;;;;;;;25.50;76.20;;;;;;5105155;27;42848;-80
2023/09/17 10:05:44;;;;;;;;;;;25.30;76.60;;;;;;5105141;27;43023;-80
2023/09/17 10:08:11;;;;;;;;;;;25.50;77.10;;;;;;5104174;27;43067;-80
2023/09/17 10:10:37;;;;;;;;;;;25.40;77.30;;;;;;5104594;27;44305;-79
2023/09/17 10:13:06;;;;;;;;;;;25.50;77.20;;;;;;5105172;27;42994;-79
2023/09/17 10:15:32;;;;;;;;;;;25.60;77.30;;;;;;5104972;27;42924;-79
2023/09/17 10:17:59;;;;;;;;;;;25.40;77.90;;;;;;5101742;27;42961;-81
2023/09/17 10:20:24;;;;;;;;;;;25.30;77.70;;;;;;5089856;27;43728;-80
2023/09/17 10:22:51;;;;;;;;;;;25.40;77.30;;;;;;5089014;27;42899;-79
2023/09/17 10:25:17;;;;;;;;;;;25.30;77.10;;;;;;5087492;27;42913;-79
2023/09/17 10:27:43;;;;;;;;;;;25.40;77.40;;;;;;5103837;27;42972;-79
2023/09/17 10:30:10;;;;;;;;;;;25.60;77.00;;;;;;5103840;27;43047;-79
2023/09/17 10:32:36;;;;;;;;;;;25.30;76.90;;;;;;5104100;27;42822;-80
2023/09/17 10:35:02;;;;;;;;;;;25.40;77.20;;;;;;5104970;27;43419;-81
2023/09/17 10:37:29;;;;;;;;;;;25.50;77.30;;;;;;5105123;27;42986;-80
2023/09/17 10:39:56;;;;;;;;;;;25.30;77.30;;;;;;5100995;27;43549;-80
2023/09/17 10:42:22;;;;;;;;;;;25.60;77.40;;;;;;5102456;27;43023;-79
2023/09/17 10:44:49;;;;;;;;;;;25.50;77.40;;;;;;5104651;27;43301;-78
2023/09/17 10:47:16;;;;;;;;;;;25.60;78.30;;;;;;5104073;27;42925;-78
2023/09/17 10:49:41;;;;;;;;;;;25.40;78.40;;;;;;5101549;27;44222;-78
2023/09/17 10:52:08;;;;;;;;;;;25.50;79.10;;;;;;5104454;27;42956;-79
2023/09/17 10:54:33;;;;;;;;;;;25.40;79.20;;;;;;5104555;27;42957;-80
2023/09/17 10:57:01;;;;;;;;;;;25.50;77.40;;;;;;5104945;27;43141;-80
2023/09/17 10:59:27;;;;;;;;;;;25.50;79.50;;;;;;5105270;27;43022;-79
2023/09/17 11:01:53;;;;;;;;;;;25.50;78.90;;;;;;5108220;27;42861;-79
2023/09/17 11:04:21;;;;;;;;;;;25.70;79.10;;;;;;5107901;27;42920;-78
2023/09/17 11:06:47;;;;;;;;;;;25.40;78.50;;;;;;5106720;27;43061;-79
2023/09/17 11:09:13;;;;;;;;;;;25.30;78.80;;;;;;5107527;27;42928;-79
2023/09/17 11:11:40;;;;;;;;;;;25.60;79.00;;;;;;5108227;27;43307;-79
2023/09/17 11:14:08;;;;;;;;;;;25.50;79.00;;;;;;5108615;27;44117;-77
2023/09/17 11:16:34;;;;;;;;;;;25.60;77.80;;;;;;5108093;27;43007;-79
2023/09/17 11:19:06;;;;;;;;;;;25.60;78.50;;;;;;5107360;27;42887;-79
2023/09/17 11:21:55;;;;;;;;;;;25.40;76.10;;;;;;5107739;27;42995;-79
2023/09/17 11:24:20;;;;;;;;;;;25.70;75.90;;;;;;5106369;27;42918;-79
2023/09/17 11:26:47;;;;;;;;;;;25.60;78.40;;;;;;5110587;27;43026;-78
2023/09/17 11:29:14;;;;;;;;;;;25.50;78.10;;;;;;5108273;27;43573;-78
2023/09/17 11:31:52;;;;;;;;;;;25.60;77.70;;;;;;5109127;27;43166;-79
2023/09/17 11:34:17;;;;;;;;;;;25.60;76.10;;;;;;5099437;27;43475;-79
2023/09/17 11:36:44;;;;;;;;;;;25.60;78.70;;;;;;5107106;27;42841;-80
2023/09/17 11:39:15;;;;;;;;;;;25.60;79.70;;;;;;5108068;27;43480;-79
2023/09/17 11:41:46;;;;;;;;;;;25.60;79.00;;;;;;5107380;27;42828;-79
2023/09/17 11:44:18;;;;;;;;;;;25.60;78.80;;;;;;5106710;27;43868;-80
2023/09/17 11:46:44;;;;;;;;;;;25.60;76.40;;;;;;5108405;27;42886;-80
2023/09/17 11:49:09;;;;;;;;;;;25.60;78.60;;;;;;5107134;27;42877;-80
2023/09/17 11:51:41;;;;;;;;;;;25.80;78.70;;;;;;5107475;27;42940;-80
2023/09/17 11:54:07;;;;;;;;;;;25.70;77.90;;;;;;5107962;27;43051;-79
2023/09/17 11:56:45;;;;;;;;;;;25.70;78.60;;;;;;5108054;27;43045;-80
2023/09/17 11:59:15;;;;;;;;;;;25.60;78.40;;;;;;5105584;27;42845;-80
2023/09/17 12:01:49;;;;;;;;;;;25.80;77.90;;;;;;5087341;27;43020;-79
2023/09/17 12:04:15;;;;;;;;;;;25.70;76.00;;;;;;5075589;27;43212;-80
2023/09/17 12:06:41;;;;;;;;;;;25.80;78.60;;;;;;5103406;27;42875;-79
2023/09/17 12:09:15;;;;;;;;;;;25.80;78.70;;;;;;5095696;27;42885;-79
2023/09/17 12:11:42;;;;;;;;;;;25.60;79.10;;;;;;5087695;27;43134;-79
2023/09/17 12:14:08;;;;;;;;;;;25.20;78.50;;;;;;5086604;27;44493;-79
2023/09/17 12:16:34;;;;;;;;;;;25.50;79.30;;;;;;5091278;27;42995;-79
2023/09/17 12:18:59;;;;;;;;;;;25.40;78.90;;;;;;5086386;27;42847;-80
2023/09/17 12:21:27;;;;;;;;;;;25.80;78.60;;;;;;5087818;27;42969;-79
2023/09/17 12:24:06;;;;;;;;;;;25.50;78.20;;;;;;5101085;27;44037;-80
2023/09/17 12:26:47;;;;;;;;;;;25.70;78.60;;;;;;5097023;27;43095;-79
2023/09/17 12:29:13;;;;;;;;;;;25.70;76.00;;;;;;5097294;27;43666;-79
2023/09/17 12:31:40;;;;;;;;;;;25.60;77.60;;;;;;5087391;27;42917;-80
2023/09/17 12:34:05;;;;;;;;;;;25.70;77.90;;;;;;5098549;27;43848;-79
2023/09/17 12:36:31;;;;;;;;;;;25.90;78.30;;;;;;5082323;27;42975;-78
2023/09/17 12:38:57;;;;;;;;;;;25.70;77.50;;;;;;5079477;27;42962;-78
2023/09/17 12:41:22;;;;;;;;;;;25.70;78.00;;;;;;5076354;28;42994;-76
2023/09/17 12:43:48;;;;;;;;;;;25.80;78.50;;;;;;5082224;27;43607;-80
2023/09/17 12:46:14;;;;;;;;;;;25.90;78.40;;;;;;5074126;28;43080;-82
2023/09/17 12:48:40;;;;;;;;;;;25.80;78.30;;;;;;5077126;27;43530;-78
2023/09/17 12:51:05;;;;;;;;;;;26.10;78.30;;;;;;5098159;27;43118;-78
2023/09/17 12:53:31;;;;;;;;;;;25.70;77.80;;;;;;5101136;27;42987;-78
2023/09/17 12:55:58;;;;;;;;;;;25.70;77.30;;;;;;5105267;27;42995;-78
2023/09/17 12:58:23;;;;;;;;;;;25.90;78.20;;;;;;5105848;27;43479;-78
2023/09/17 13:00:49;;;;;;;;;;;25.80;77.90;;;;;;5106225;27;42917;-79
2023/09/17 13:03:14;;;;;;;;;;;25.90;78.00;;;;;;5105372;27;43683;-79
2023/09/17 13:05:40;;;;;;;;;;;25.60;77.80;;;;;;5105706;27;42950;-78
2023/09/17 13:08:07;;;;;;;;;;;25.80;77.90;;;;;;5106001;27;43516;-79
2023/09/17 13:10:34;;;;;;;;;;;25.80;78.30;;;;;;5123638;27;42955;-79
2023/09/17 13:13:03;;;;;;;;;;;25.80;78.00;;;;;;5113259;27;43696;-79
2023/09/17 13:15:28;;;;;;;;;;;25.70;77.50;;;;;;5105177;27;43170;-78
2023/09/17 13:17:54;;;;;;;;;;;25.90;77.80;;;;;;5105668;27;42991;-78
2023/09/17 13:20:20;;;;;;;;;;;25.80;78.10;;;;;;5105078;27;42909;-78
2023/09/17 13:22:47;;;;;;;;;;;25.80;77.90;;;;;;5104959;27;42943;-78
2023/09/17 13:25:13;;;;;;;;;;;25.80;78.20;;;;;;5100737;27;43027;-78
2023/09/17 13:27:38;;;;;;;;;;;25.70;79.00;;;;;;5101972;27;42858;-78
2023/09/17 13:30:05;;;;;;;;;;;25.20;78.60;;;;;;5104267;27;42956;-78
2023/09/17 13:32:31;;;;;;;;;;;25.80;77.90;;;;;;5103895;27;43536;-78
2023/09/17 13:34:57;;;;;;;;;;;25.60;78.20;;;;;;5101061;27;42964;-78
2023/09/17 13:37:24;;;;;;;;;;;25.80;78.50;;;;;;5129020;27;44444;-78
2023/09/17 13:39:52;;;;;;;;;;;25.70;78.70;;;;;;5104578;27;42897;-78
2023/09/17 13:42:18;;;;;;;;;;;25.70;78.40;;;;;;5099290;27;43539;-78
2023/09/17 13:44:43;;;;;;;;;;;25.80;78.10;;;;;;5103621;27;42952;-78
2023/09/17 13:47:10;;;;;;;;;;;25.80;78.50;;;;;;5106096;27;42948;-78
2023/09/17 13:49:36;;;;;;;;;;;25.80;78.20;;;;;;5103840;27;43082;-78
2023/09/17 13:52:03;;;;;;;;;;;25.80;78.20;;;;;;5104017;27;43737;-79
2023/09/17 13:54:28;;;;;;;;;;;25.80;77.70;;;;;;5104423;27;43443;-79
2023/09/17 13:56:54;;;;;;;;;;;25.80;77.30;;;;;;5105194;27;43648;-79
2023/09/17 13:59:19;;;;;;;;;;;25.80;77.90;;;;;;5100973;27;43876;-78
2023/09/17 14:01:45;;;;;;;;;;;25.70;78.20;;;;;;5087566;27;43035;-79
2023/09/17 14:04:10;;;;;;;;;;;26.30;78.70;;;;;;5103116;27;42997;-79
2023/09/17 14:06:36;;;;;;;;;;;25.80;78.50;;;;;;5101605;27;43282;-78
2023/09/17 14:09:02;;;;;;;;;;;25.90;78.40;;;;;;5104234;27;43039;-77
2023/09/17 14:11:27;;;;;;;;;;;25.90;77.10;;;;;;5104283;27;43787;-78